Portada
METAR-TAF:

METAR-TAF

Aeroports :

Monticello Municipal Airport/Ellis Field

Monticello, Arkansas, Estats Units d'Amèrica

latitud: 33-38-18N, longitud: 091-45-04W, altitud: 82 m

Observació

L'informe es va fer fa 44 minuts, a les 00:53 UTC
Vent calma
Temperatura 6°C
Humitat 75%
Pressió 1020 hPa
Visibilitat: 16.1 km
Cel ennuvolat a una alçada de 3600 ft

METAR: KLLQ 250053Z AUTO 00000KT 10SM BKN036 06/02 A3011 RMK AO2 SLP195 T00610017

Hora: 19:37 (01:37 UTC)

Pronòstic

L'informe es va fer fa 2 hores i 17 minuts, a les 23:20 UTC
Pronòstic vàlid del 25 a les 00 UTC al 25 a les 24 UTC
Vent 6 kt del Oest/Nord-Oest
Visibilitat: 10 km
Cel ennuvolat a una alçada de 3500 ft
Cel cobert a una alçada de 6000 ft
A partir de les 25 a les 1200 UTC
Vent 6 kt del Oest
Visibilitat: 10 km
Cel ennuvolat a una alçada de 25000 ft

TAF: KLLQ 242320Z 2500/2524 29006KT P6SM BKN035 OVC060 FM251200 28006KT P6SM BKN250

Observacions i pronòstics meteorològics de més de 4000 aeroports (METAR i TAF).

Les estacions disponibles són els punts grocs i vermells al mapa.

Posi el ratolí al punt desitjat per veure el nom de l'estació.

Feu clic per veure les observacions i els pronòstics meteorològics.

Per canviar el mapa: feu clic els botons verds amb una creu de color negre per apropar; al botó verd amb un guió per allunyar la imatge; o en les fletxes verdes per a mapes adjacents.


METAR-TAF: